sensor_id;sensor_type;location;lat;lon;timestamp;temperature;humidity
582;DHT22;277;50.074;8.436;2022-12-18T00:02:22;-7.30;99.90
582;DHT22;277;50.074;8.436;2022-12-18T00:04:49;-7.20;99.90
582;DHT22;277;50.074;8.436;2022-12-18T00:07:17;-7.10;99.90
582;DHT22;277;50.074;8.436;2022-12-18T00:09:46;-7.00;99.90
582;DHT22;277;50.074;8.436;2022-12-18T00:12:14;-7.00;99.90
582;DHT22;277;50.074;8.436;2022-12-18T00:14:46;-7.00;99.90
582;DHT22;277;50.074;8.436;2022-12-18T00:17:14;-7.10;99.90
582;DHT22;277;50.074;8.436;2022-12-18T00:19:42;-7.10;99.90
582;DHT22;277;50.074;8.436;2022-12-18T00:22:09;-7.20;99.90
582;DHT22;277;50.074;8.436;2022-12-18T00:24:37;-7.30;99.90
582;DHT22;277;50.074;8.436;2022-12-18T00:27:06;-7.40;99.90
582;DHT22;277;50.074;8.436;2022-12-18T00:29:34;-7.50;99.90
582;DHT22;277;50.074;8.436;2022-12-18T00:32:01;-7.60;99.90
582;DHT22;277;50.074;8.436;2022-12-18T00:34:29;-7.70;99.90
582;DHT22;277;50.074;8.436;2022-12-18T00:36:57;-7.60;99.90
582;DHT22;277;50.074;8.436;2022-12-18T00:39:25;-7.60;99.90
582;DHT22;277;50.074;8.436;2022-12-18T00:41:52;-7.70;99.90
582;DHT22;277;50.074;8.436;2022-12-18T00:44:40;-7.70;99.90
582;DHT22;277;50.074;8.436;2022-12-18T00:47:07;-7.60;99.90
582;DHT22;277;50.074;8.436;2022-12-18T00:49:35;-7.70;99.90
582;DHT22;277;50.074;8.436;2022-12-18T00:52:03;-7.70;99.90
582;DHT22;277;50.074;8.436;2022-12-18T00:54:31;-7.70;99.90
582;DHT22;277;50.074;8.436;2022-12-18T00:56:58;-7.60;99.90
582;DHT22;277;50.074;8.436;2022-12-18T00:59:26;-7.50;99.90
582;DHT22;277;50.074;8.436;2022-12-18T01:01:55;-7.50;99.90
582;DHT22;277;50.074;8.436;2022-12-18T01:04:23;-7.60;99.90
582;DHT22;277;50.074;8.436;2022-12-18T01:06:51;-7.70;99.90
582;DHT22;277;50.074;8.436;2022-12-18T01:09:18;-7.70;99.90
582;DHT22;277;50.074;8.436;2022-12-18T01:11:46;-7.70;99.90
582;DHT22;277;50.074;8.436;2022-12-18T01:14:14;-7.70;99.90
582;DHT22;277;50.074;8.436;2022-12-18T01:16:41;-7.70;99.90
582;DHT22;277;50.074;8.436;2022-12-18T01:19:11;-7.80;99.90
582;DHT22;277;50.074;8.436;2022-12-18T01:21:39;-7.80;99.90
582;DHT22;277;50.074;8.436;2022-12-18T01:24:06;-7.90;99.90
582;DHT22;277;50.074;8.436;2022-12-18T01:26:34;-7.90;99.90
582;DHT22;277;50.074;8.436;2022-12-18T01:29:02;-7.90;99.90
582;DHT22;277;50.074;8.436;2022-12-18T01:31:30;-7.90;99.90
582;DHT22;277;50.074;8.436;2022-12-18T01:34:00;-7.90;99.90
582;DHT22;277;50.074;8.436;2022-12-18T01:36:30;-7.90;99.90
582;DHT22;277;50.074;8.436;2022-12-18T01:38:59;-7.90;99.90
582;DHT22;277;50.074;8.436;2022-12-18T01:41:28;-7.90;99.90
582;DHT22;277;50.074;8.436;2022-12-18T01:47:02;-7.90;99.90
582;DHT22;277;50.074;8.436;2022-12-18T01:49:30;-7.90;99.90
582;DHT22;277;50.074;8.436;2022-12-18T01:51:59;-7.90;99.90
582;DHT22;277;50.074;8.436;2022-12-18T01:54:26;-7.90;99.90
582;DHT22;277;50.074;8.436;2022-12-18T01:56:54;-7.90;99.90
582;DHT22;277;50.074;8.436;2022-12-18T01:59:22;-7.90;99.90
582;DHT22;277;50.074;8.436;2022-12-18T02:01:50;-7.90;99.90
582;DHT22;277;50.074;8.436;2022-12-18T02:04:19;-8.00;99.90
582;DHT22;277;50.074;8.436;2022-12-18T02:06:47;-8.00;99.90
582;DHT22;277;50.074;8.436;2022-12-18T02:09:20;-8.00;99.90
582;DHT22;277;50.074;8.436;2022-12-18T02:11:49;-8.00;99.90
582;DHT22;277;50.074;8.436;2022-12-18T02:14:22;-8.00;99.90
582;DHT22;277;50.074;8.436;2022-12-18T02:16:52;-8.10;99.90
582;DHT22;277;50.074;8.436;2022-12-18T02:19:27;-8.00;99.90
582;DHT22;277;50.074;8.436;2022-12-18T02:22:04;-8.00;99.90
582;DHT22;277;50.074;8.436;2022-12-18T02:24:38;-8.00;99.90
582;DHT22;277;50.074;8.436;2022-12-18T02:27:09;-8.00;99.90
582;DHT22;277;50.074;8.436;2022-12-18T02:29:39;-8.00;99.90
582;DHT22;277;50.074;8.436;2022-12-18T02:32:09;-7.90;99.90
582;DHT22;277;50.074;8.436;2022-12-18T02:34:38;-7.80;99.90
582;DHT22;277;50.074;8.436;2022-12-18T02:37:07;-7.80;99.90
582;DHT22;277;50.074;8.436;2022-12-18T02:39:36;-7.80;99.90
582;DHT22;277;50.074;8.436;2022-12-18T02:42:05;-7.80;99.90
582;DHT22;277;50.074;8.436;2022-12-18T02:44:39;-7.70;99.90
582;DHT22;277;50.074;8.436;2022-12-18T02:47:09;-7.70;99.90
582;DHT22;277;50.074;8.436;2022-12-18T02:49:39;-7.60;99.90
582;DHT22;277;50.074;8.436;2022-12-18T02:52:12;-7.70;99.90
582;DHT22;277;50.074;8.436;2022-12-18T02:54:52;-7.70;99.90
582;DHT22;277;50.074;8.436;2022-12-18T02:57:24;-7.80;99.90
582;DHT22;277;50.074;8.436;2022-12-18T02:59:58;-7.80;99.90
582;DHT22;277;50.074;8.436;2022-12-18T03:02:29;-7.80;99.90
582;DHT22;277;50.074;8.436;2022-12-18T03:05:02;-7.90;99.90
582;DHT22;277;50.074;8.436;2022-12-18T03:07:35;-7.90;99.90
582;DHT22;277;50.074;8.436;2022-12-18T03:10:05;-7.90;99.90
582;DHT22;277;50.074;8.436;2022-12-18T03:12:34;-7.90;99.90
582;DHT22;277;50.074;8.436;2022-12-18T03:15:04;-7.80;99.90
582;DHT22;277;50.074;8.436;2022-12-18T03:17:44;-7.80;99.90
582;DHT22;277;50.074;8.436;2022-12-18T03:20:14;-7.70;99.90
582;DHT22;277;50.074;8.436;2022-12-18T03:22:42;-7.50;99.90
582;DHT22;277;50.074;8.436;2022-12-18T03:25:13;-7.40;99.90
582;DHT22;277;50.074;8.436;2022-12-18T03:27:42;-7.20;99.90
582;DHT22;277;50.074;8.436;2022-12-18T03:30:12;-7.10;99.90
582;DHT22;277;50.074;8.436;2022-12-18T03:32:42;-7.00;99.90
582;DHT22;277;50.074;8.436;2022-12-18T03:35:10;-6.90;99.90
582;DHT22;277;50.074;8.436;2022-12-18T03:37:40;-6.80;99.90
582;DHT22;277;50.074;8.436;2022-12-18T03:40:08;-6.70;99.90
582;DHT22;277;50.074;8.436;2022-12-18T03:42:37;-6.60;99.90
582;DHT22;277;50.074;8.436;2022-12-18T03:45:08;-6.60;99.90
582;DHT22;277;50.074;8.436;2022-12-18T03:47:39;-6.50;99.90
582;DHT22;277;50.074;8.436;2022-12-18T03:50:09;-6.50;99.90
582;DHT22;277;50.074;8.436;2022-12-18T03:52:40;-6.40;99.90
582;DHT22;277;50.074;8.436;2022-12-18T03:55:10;-6.30;99.90
582;DHT22;277;50.074;8.436;2022-12-18T03:57:38;-6.20;99.90
582;DHT22;277;50.074;8.436;2022-12-18T04:00:08;-6.20;99.90
582;DHT22;277;50.074;8.436;2022-12-18T04:02:36;-6.30;99.90
582;DHT22;277;50.074;8.436;2022-12-18T04:05:07;-6.30;99.90
582;DHT22;277;50.074;8.436;2022-12-18T04:07:36;-6.20;99.90
582;DHT22;277;50.074;8.436;2022-12-18T04:10:05;-6.20;99.90
582;DHT22;277;50.074;8.436;2022-12-18T04:12:34;-6.20;99.90
582;DHT22;277;50.074;8.436;2022-12-18T04:15:01;-6.30;99.90
582;DHT22;277;50.074;8.436;2022-12-18T04:17:29;-6.20;99.90
582;DHT22;277;50.074;8.436;2022-12-18T04:19:57;-6.30;99.90
582;DHT22;277;50.074;8.436;2022-12-18T04:22:26;-6.30;99.90
582;DHT22;277;50.074;8.436;2022-12-18T04:24:53;-6.30;99.90
582;DHT22;277;50.074;8.436;2022-12-18T04:27:21;-6.30;99.90
582;DHT22;277;50.074;8.436;2022-12-18T04:29:49;-6.30;99.90
582;DHT22;277;50.074;8.436;2022-12-18T04:32:16;-6.20;99.90
582;DHT22;277;50.074;8.436;2022-12-18T04:34:44;-6.10;99.90
582;DHT22;277;50.074;8.436;2022-12-18T04:37:12;-6.10;99.90
582;DHT22;277;50.074;8.436;2022-12-18T04:39:41;-6.10;99.90
582;DHT22;277;50.074;8.436;2022-12-18T04:42:09;-6.10;99.90
582;DHT22;277;50.074;8.436;2022-12-18T04:44:36;-6.10;99.90
582;DHT22;277;50.074;8.436;2022-12-18T04:47:04;-6.10;99.90
582;DHT22;277;50.074;8.436;2022-12-18T04:49:32;-6.10;99.90
582;DHT22;277;50.074;8.436;2022-12-18T04:51:59;-6.00;99.90
582;DHT22;277;50.074;8.436;2022-12-18T04:54:27;-6.00;99.90
582;DHT22;277;50.074;8.436;2022-12-18T04:56:56;-6.00;99.90
582;DHT22;277;50.074;8.436;2022-12-18T04:59:24;-6.00;99.90
582;DHT22;277;50.074;8.436;2022-12-18T05:01:52;-6.00;99.90
582;DHT22;277;50.074;8.436;2022-12-18T05:04:20;-5.90;99.90
582;DHT22;277;50.074;8.436;2022-12-18T05:06:47;-6.00;99.90
582;DHT22;277;50.074;8.436;2022-12-18T05:09:15;-5.90;99.90
582;DHT22;277;50.074;8.436;2022-12-18T05:11:45;-5.90;99.90
582;DHT22;277;50.074;8.436;2022-12-18T05:14:14;-6.00;99.90
582;DHT22;277;50.074;8.436;2022-12-18T05:16:42;-6.00;99.90
582;DHT22;277;50.074;8.436;2022-12-18T05:19:11;-5.90;99.90
582;DHT22;277;50.074;8.436;2022-12-18T05:21:39;-5.90;99.90
582;DHT22;277;50.074;8.436;2022-12-18T05:24:06;-5.90;99.90
582;DHT22;277;50.074;8.436;2022-12-18T05:26:34;-5.90;99.90
582;DHT22;277;50.074;8.436;2022-12-18T05:29:02;-5.90;99.90
582;DHT22;277;50.074;8.436;2022-12-18T05:31:31;-5.80;99.90
582;DHT22;277;50.074;8.436;2022-12-18T05:34:05;-5.80;99.90
582;DHT22;277;50.074;8.436;2022-12-18T05:36:32;-5.70;99.90
582;DHT22;277;50.074;8.436;2022-12-18T05:39:00;-5.70;99.90
582;DHT22;277;50.074;8.436;2022-12-18T05:41:28;-5.60;99.90
582;DHT22;277;50.074;8.436;2022-12-18T05:43:56;-5.70;99.90
582;DHT22;277;50.074;8.436;2022-12-18T05:46:23;-5.70;99.90
582;DHT22;277;50.074;8.436;2022-12-18T05:48:53;-5.70;99.90
582;DHT22;277;50.074;8.436;2022-12-18T05:51:21;-5.70;99.90
582;DHT22;277;50.074;8.436;2022-12-18T05:53:51;-5.80;99.90
582;DHT22;277;50.074;8.436;2022-12-18T05:56:20;-5.80;99.90
582;DHT22;277;50.074;8.436;2022-12-18T05:58:51;-6.00;99.90
582;DHT22;277;50.074;8.436;2022-12-18T06:01:19;-6.20;99.90
582;DHT22;277;50.074;8.436;2022-12-18T06:03:48;-6.30;99.90
582;DHT22;277;50.074;8.436;2022-12-18T06:06:18;-6.50;99.90
582;DHT22;277;50.074;8.436;2022-12-18T06:08:46;-6.60;99.90
582;DHT22;277;50.074;8.436;2022-12-18T06:11:16;-6.80;99.90
582;DHT22;277;50.074;8.436;2022-12-18T06:13:44;-6.90;99.90
582;DHT22;277;50.074;8.436;2022-12-18T06:16:12;-7.10;99.90
582;DHT22;277;50.074;8.436;2022-12-18T06:18:40;-7.10;99.90
582;DHT22;277;50.074;8.436;2022-12-18T06:21:08;-7.20;99.90
582;DHT22;277;50.074;8.436;2022-12-18T06:23:37;-7.20;99.90
582;DHT22;277;50.074;8.436;2022-12-18T06:26:06;-7.20;99.90
582;DHT22;277;50.074;8.436;2022-12-18T06:28:34;-7.10;99.90
582;DHT22;277;50.074;8.436;2022-12-18T06:31:02;-7.20;99.90
582;DHT22;277;50.074;8.436;2022-12-18T06:33:30;-7.10;99.90
582;DHT22;277;50.074;8.436;2022-12-18T06:35:59;-7.10;99.90
582;DHT22;277;50.074;8.436;2022-12-18T06:38:27;-7.00;99.90
582;DHT22;277;50.074;8.436;2022-12-18T06:40:56;-7.00;99.90
582;DHT22;277;50.074;8.436;2022-12-18T06:43:23;-7.00;99.90
582;DHT22;277;50.074;8.436;2022-12-18T06:45:57;-6.90;99.90
582;DHT22;277;50.074;8.436;2022-12-18T06:48:24;-6.90;99.90
582;DHT22;277;50.074;8.436;2022-12-18T06:50:52;-6.90;99.90
582;DHT22;277;50.074;8.436;2022-12-18T06:53:20;-6.80;99.90
582;DHT22;277;50.074;8.436;2022-12-18T06:55:48;-6.70;99.90
582;DHT22;277;50.074;8.436;2022-12-18T06:58:17;-6.70;99.90
582;DHT22;277;50.074;8.436;2022-12-18T07:00:45;-6.70;99.90
582;DHT22;277;50.074;8.436;2022-12-18T07:03:13;-6.60;99.90
582;DHT22;277;50.074;8.436;2022-12-18T07:05:40;-6.60;99.90
582;DHT22;277;50.074;8.436;2022-12-18T07:08:08;-6.50;99.90
582;DHT22;277;50.074;8.436;2022-12-18T07:10:40;-6.50;99.90
582;DHT22;277;50.074;8.436;2022-12-18T07:13:13;-6.50;99.90
582;DHT22;277;50.074;8.436;2022-12-18T07:15:42;-6.60;99.90
582;DHT22;277;50.074;8.436;2022-12-18T07:18:10;-6.50;99.90
582;DHT22;277;50.074;8.436;2022-12-18T07:20:39;-6.50;99.90
582;DHT22;277;50.074;8.436;2022-12-18T07:23:07;-6.60;99.90
582;DHT22;277;50.074;8.436;2022-12-18T07:25:34;-6.60;99.90
582;DHT22;277;50.074;8.436;2022-12-18T07:28:02;-6.60;99.90
582;DHT22;277;50.074;8.436;2022-12-18T07:30:30;-6.60;99.90
582;DHT22;277;50.074;8.436;2022-12-18T07:32:59;-6.60;99.90
582;DHT22;277;50.074;8.436;2022-12-18T07:35:27;-6.60;99.90
582;DHT22;277;50.074;8.436;2022-12-18T07:37:55;-6.60;99.90
582;DHT22;277;50.074;8.436;2022-12-18T07:40:22;-6.50;99.90
582;DHT22;277;50.074;8.436;2022-12-18T07:42:50;-6.50;99.90
582;DHT22;277;50.074;8.436;2022-12-18T07:45:18;-6.40;99.90
582;DHT22;277;50.074;8.436;2022-12-18T07:47:45;-6.40;99.90
582;DHT22;277;50.074;8.436;2022-12-18T07:50:14;-6.30;99.90
582;DHT22;277;50.074;8.436;2022-12-18T07:52:42;-6.20;99.90
582;DHT22;277;50.074;8.436;2022-12-18T07:55:10;-6.00;99.90
582;DHT22;277;50.074;8.436;2022-12-18T07:57:38;-5.90;99.90
582;DHT22;277;50.074;8.436;2022-12-18T08:00:26;-5.70;99.90
582;DHT22;277;50.074;8.436;2022-12-18T08:02:53;-5.50;99.90
582;DHT22;277;50.074;8.436;2022-12-18T08:05:23;-5.40;99.90
582;DHT22;277;50.074;8.436;2022-12-18T08:07:50;-5.30;99.90
582;DHT22;277;50.074;8.436;2022-12-18T08:10:18;-5.30;99.90
582;DHT22;277;50.074;8.436;2022-12-18T08:12:48;-5.10;99.90
582;DHT22;277;50.074;8.436;2022-12-18T08:15:16;-4.90;99.90
582;DHT22;277;50.074;8.436;2022-12-18T08:17:43;-4.50;99.90
582;DHT22;277;50.074;8.436;2022-12-18T08:20:11;-4.30;99.90
582;DHT22;277;50.074;8.436;2022-12-18T08:22:41;-4.20;99.90
582;DHT22;277;50.074;8.436;2022-12-18T08:25:09;-4.10;99.90
582;DHT22;277;50.074;8.436;2022-12-18T08:27:37;-4.00;99.90
582;DHT22;277;50.074;8.436;2022-12-18T08:30:05;-3.80;99.90
582;DHT22;277;50.074;8.436;2022-12-18T08:32:33;-3.80;99.90
582;DHT22;277;50.074;8.436;2022-12-18T08:35:01;-3.70;99.90
582;DHT22;277;50.074;8.436;2022-12-18T08:37:28;-3.60;99.90
582;DHT22;277;50.074;8.436;2022-12-18T08:39:57;-3.60;99.90
582;DHT22;277;50.074;8.436;2022-12-18T08:42:25;-3.70;99.90
582;DHT22;277;50.074;8.436;2022-12-18T08:45:10;-3.40;99.90
582;DHT22;277;50.074;8.436;2022-12-18T08:47:38;-3.20;99.90
582;DHT22;277;50.074;8.436;2022-12-18T08:50:06;-3.20;99.90
582;DHT22;277;50.074;8.436;2022-12-18T08:52:34;-3.20;99.90
582;DHT22;277;50.074;8.436;2022-12-18T08:55:04;-2.90;99.90
582;DHT22;277;50.074;8.436;2022-12-18T08:57:31;-2.70;99.90
582;DHT22;277;50.074;8.436;2022-12-18T08:59:59;-2.40;99.90
582;DHT22;277;50.074;8.436;2022-12-18T09:02:28;-2.00;99.90
582;DHT22;277;50.074;8.436;2022-12-18T09:04:56;-1.80;99.90
582;DHT22;277;50.074;8.436;2022-12-18T09:07:23;-1.70;99.90
582;DHT22;277;50.074;8.436;2022-12-18T09:09:51;-1.60;99.90
582;DHT22;277;50.074;8.436;2022-12-18T09:12:20;-1.60;99.90
582;DHT22;277;50.074;8.436;2022-12-18T09:14:48;-1.50;99.90
582;DHT22;277;50.074;8.436;2022-12-18T09:17:16;-1.40;99.90
582;DHT22;277;50.074;8.436;2022-12-18T09:19:43;-1.40;99.90
582;DHT22;277;50.074;8.436;2022-12-18T09:22:11;-1.30;99.90
582;DHT22;277;50.074;8.436;2022-12-18T09:24:39;-1.40;99.90
582;DHT22;277;50.074;8.436;2022-12-18T09:27:07;-1.20;99.90
582;DHT22;277;50.074;8.436;2022-12-18T09:29:36;-1.20;99.90
582;DHT22;277;50.074;8.436;2022-12-18T09:32:03;-1.00;99.90
582;DHT22;277;50.074;8.436;2022-12-18T09:34:31;-1.10;99.90
582;DHT22;277;50.074;8.436;2022-12-18T09:36:59;-1.10;99.90
582;DHT22;277;50.074;8.436;2022-12-18T09:39:27;-1.10;99.90
582;DHT22;277;50.074;8.436;2022-12-18T09:41:55;-1.00;99.90
582;DHT22;277;50.074;8.436;2022-12-18T09:44:25;-0.90;99.90
582;DHT22;277;50.074;8.436;2022-12-18T09:46:57;-1.00;99.90
582;DHT22;277;50.074;8.436;2022-12-18T09:49:27;-1.10;99.90
582;DHT22;277;50.074;8.436;2022-12-18T09:51:56;-0.90;99.90
582;DHT22;277;50.074;8.436;2022-12-18T09:54:32;-1.00;99.90
582;DHT22;277;50.074;8.436;2022-12-18T09:57:01;-1.10;99.90
582;DHT22;277;50.074;8.436;2022-12-18T09:59:30;-1.10;99.90
582;DHT22;277;50.074;8.436;2022-12-18T10:02:00;-1.30;99.90
582;DHT22;277;50.074;8.436;2022-12-18T10:04:38;-1.30;99.90
582;DHT22;277;50.074;8.436;2022-12-18T10:07:07;-1.40;99.90
582;DHT22;277;50.074;8.436;2022-12-18T10:09:37;-1.50;99.90
582;DHT22;277;50.074;8.436;2022-12-18T10:12:07;-1.50;99.90
582;DHT22;277;50.074;8.436;2022-12-18T10:14:36;-1.40;99.90
582;DHT22;277;50.074;8.436;2022-12-18T10:17:13;-1.40;99.90
582;DHT22;277;50.074;8.436;2022-12-18T10:19:43;-1.20;99.90
582;DHT22;277;50.074;8.436;2022-12-18T10:22:21;-1.10;99.90
582;DHT22;277;50.074;8.436;2022-12-18T10:24:53;-0.90;99.90
582;DHT22;277;50.074;8.436;2022-12-18T10:27:24;-0.70;99.90
582;DHT22;277;50.074;8.436;2022-12-18T10:29:52;-0.90;99.90
582;DHT22;277;50.074;8.436;2022-12-18T10:32:22;-0.80;99.90
582;DHT22;277;50.074;8.436;2022-12-18T10:34:52;-0.80;99.90
582;DHT22;277;50.074;8.436;2022-12-18T10:37:27;-0.90;99.90
582;DHT22;277;50.074;8.436;2022-12-18T10:40:06;-1.10;99.90
582;DHT22;277;50.074;8.436;2022-12-18T10:42:34;-1.20;99.90
582;DHT22;277;50.074;8.436;2022-12-18T10:45:03;-1.40;99.90
582;DHT22;277;50.074;8.436;2022-12-18T10:47:32;-1.50;99.90
582;DHT22;277;50.074;8.436;2022-12-18T10:50:00;-1.60;99.90
582;DHT22;277;50.074;8.436;2022-12-18T10:52:28;-1.80;99.90
582;DHT22;277;50.074;8.436;2022-12-18T10:54:57;-1.80;99.90
582;DHT22;277;50.074;8.436;2022-12-18T10:57:33;-2.10;99.90
582;DHT22;277;50.074;8.436;2022-12-18T11:00:19;-2.00;99.90
582;DHT22;277;50.074;8.436;2022-12-18T11:02:49;-1.90;99.90
582;DHT22;277;50.074;8.436;2022-12-18T11:05:25;-1.80;99.90
582;DHT22;277;50.074;8.436;2022-12-18T11:07:53;-1.80;99.90
582;DHT22;277;50.074;8.436;2022-12-18T11:10:22;-1.70;99.90
582;DHT22;277;50.074;8.436;2022-12-18T11:12:50;-1.70;99.90
582;DHT22;277;50.074;8.436;2022-12-18T11:15:19;-1.70;99.90
582;DHT22;277;50.074;8.436;2022-12-18T11:17:47;-1.90;99.90
582;DHT22;277;50.074;8.436;2022-12-18T11:23:04;-2.20;99.90
582;DHT22;277;50.074;8.436;2022-12-18T11:25:33;-2.40;99.90
582;DHT22;277;50.074;8.436;2022-12-18T11:28:03;-2.60;99.90
582;DHT22;277;50.074;8.436;2022-12-18T11:30:31;-2.80;99.90
582;DHT22;277;50.074;8.436;2022-12-18T11:33:01;-2.80;99.90
582;DHT22;277;50.074;8.436;2022-12-18T11:35:34;-2.80;99.90
582;DHT22;277;50.074;8.436;2022-12-18T11:38:06;-2.80;99.90
582;DHT22;277;50.074;8.436;2022-12-18T11:40:40;-2.80;99.90
582;DHT22;277;50.074;8.436;2022-12-18T11:43:10;-2.70;99.90
582;DHT22;277;50.074;8.436;2022-12-18T11:45:40;-2.60;99.90
582;DHT22;277;50.074;8.436;2022-12-18T11:48:12;-2.70;99.90
582;DHT22;277;50.074;8.436;2022-12-18T11:50:44;-2.60;99.90
582;DHT22;277;50.074;8.436;2022-12-18T11:53:15;-2.70;99.90
582;DHT22;277;50.074;8.436;2022-12-18T11:55:47;-2.90;99.90
582;DHT22;277;50.074;8.436;2022-12-18T11:58:19;-3.00;99.90
582;DHT22;277;50.074;8.436;2022-12-18T12:00:58;-3.00;99.90
582;DHT22;277;50.074;8.436;2022-12-18T12:03:35;-3.00;99.90
582;DHT22;277;50.074;8.436;2022-12-18T12:06:09;-3.10;99.90
582;DHT22;277;50.074;8.436;2022-12-18T12:08:46;-3.10;99.90
582;DHT22;277;50.074;8.436;2022-12-18T12:11:17;-3.10;99.90
582;DHT22;277;50.074;8.436;2022-12-18T12:13:52;-3.00;99.90
582;DHT22;277;50.074;8.436;2022-12-18T12:16:27;-3.10;99.90
582;DHT22;277;50.074;8.436;2022-12-18T12:19:02;-3.00;99.90
582;DHT22;277;50.074;8.436;2022-12-18T12:21:36;-3.00;99.90
582;DHT22;277;50.074;8.436;2022-12-18T12:24:10;-3.10;99.90
582;DHT22;277;50.074;8.436;2022-12-18T12:26:45;-3.20;99.90
582;DHT22;277;50.074;8.436;2022-12-18T12:29:22;-3.10;99.90
582;DHT22;277;50.074;8.436;2022-12-18T12:31:57;-3.20;99.90
582;DHT22;277;50.074;8.436;2022-12-18T12:34:28;-3.20;99.90
582;DHT22;277;50.074;8.436;2022-12-18T12:37:03;-3.20;99.90
582;DHT22;277;50.074;8.436;2022-12-18T12:39:37;-3.20;99.90
582;DHT22;277;50.074;8.436;2022-12-18T12:42:06;-3.20;99.90
582;DHT22;277;50.074;8.436;2022-12-18T12:44:56;-3.10;99.90
582;DHT22;277;50.074;8.436;2022-12-18T12:47:27;-3.00;99.90
582;DHT22;277;50.074;8.436;2022-12-18T12:49:56;-3.00;99.90
582;DHT22;277;50.074;8.436;2022-12-18T12:52:27;-2.90;99.90
582;DHT22;277;50.074;8.436;2022-12-18T12:54:58;-2.90;99.90
582;DHT22;277;50.074;8.436;2022-12-18T12:57:30;-3.00;99.90
582;DHT22;277;50.074;8.436;2022-12-18T13:00:00;-3.00;99.90
582;DHT22;277;50.074;8.436;2022-12-18T13:02:30;-3.00;99.90
582;DHT22;277;50.074;8.436;2022-12-18T13:05:01;-2.90;99.90
582;DHT22;277;50.074;8.436;2022-12-18T13:07:32;-3.00;99.90
582;DHT22;277;50.074;8.436;2022-12-18T13:10:22;-2.90;99.90
582;DHT22;277;50.074;8.436;2022-12-18T13:12:55;-2.90;99.90
582;DHT22;277;50.074;8.436;2022-12-18T13:15:24;-2.90;99.90
582;DHT22;277;50.074;8.436;2022-12-18T13:18:02;-3.00;99.90
582;DHT22;277;50.074;8.436;2022-12-18T13:20:32;-2.90;99.90
582;DHT22;277;50.074;8.436;2022-12-18T13:23:01;-3.00;99.90
582;DHT22;277;50.074;8.436;2022-12-18T13:25:49;-3.00;99.90
582;DHT22;277;50.074;8.436;2022-12-18T13:28:18;-3.00;99.90
582;DHT22;277;50.074;8.436;2022-12-18T13:30:49;-3.00;99.90
582;DHT22;277;50.074;8.436;2022-12-18T13:33:34;-2.90;99.90
582;DHT22;277;50.074;8.436;2022-12-18T13:36:29;-2.90;99.90
582;DHT22;277;50.074;8.436;2022-12-18T13:45:01;-3.00;99.90
582;DHT22;277;50.074;8.436;2022-12-18T13:47:49;-3.10;99.90
582;DHT22;277;50.074;8.436;2022-12-18T13:50:20;-3.20;99.90
582;DHT22;277;50.074;8.436;2022-12-18T13:52:49;-3.20;99.90
582;DHT22;277;50.074;8.436;2022-12-18T13:55:18;-3.20;99.90
582;DHT22;277;50.074;8.436;2022-12-18T13:57:47;-3.20;99.90
582;DHT22;277;50.074;8.436;2022-12-18T14:00:25;-3.20;99.90
582;DHT22;277;50.074;8.436;2022-12-18T14:02:55;-3.20;99.90
582;DHT22;277;50.074;8.436;2022-12-18T14:05:23;-3.20;99.90
582;DHT22;277;50.074;8.436;2022-12-18T14:07:51;-3.20;99.90
582;DHT22;277;50.074;8.436;2022-12-18T14:10:20;-3.20;99.90
582;DHT22;277;50.074;8.436;2022-12-18T14:13:08;-3.20;99.90
582;DHT22;277;50.074;8.436;2022-12-18T14:15:40;-3.20;99.90
582;DHT22;277;50.074;8.436;2022-12-18T14:18:15;-3.20;99.90
582;DHT22;277;50.074;8.436;2022-12-18T14:20:45;-3.20;99.90
582;DHT22;277;50.074;8.436;2022-12-18T14:23:25;-3.30;99.90
582;DHT22;277;50.074;8.436;2022-12-18T14:25:53;-3.30;99.90
582;DHT22;277;50.074;8.436;2022-12-18T14:28:25;-3.30;99.90
582;DHT22;277;50.074;8.436;2022-12-18T14:30:54;-3.40;99.90
582;DHT22;277;50.074;8.436;2022-12-18T14:33:23;-3.40;99.90
582;DHT22;277;50.074;8.436;2022-12-18T14:35:55;-3.30;99.90
582;DHT22;277;50.074;8.436;2022-12-18T14:38:25;-3.30;99.90
582;DHT22;277;50.074;8.436;2022-12-18T14:40:59;-3.40;99.90
582;DHT22;277;50.074;8.436;2022-12-18T14:43:29;-3.40;99.90
582;DHT22;277;50.074;8.436;2022-12-18T14:45:58;-3.30;99.90
582;DHT22;277;50.074;8.436;2022-12-18T14:48:33;-3.40;99.90
582;DHT22;277;50.074;8.436;2022-12-18T14:51:01;-3.40;99.90
582;DHT22;277;50.074;8.436;2022-12-18T14:53:34;-3.30;99.90
582;DHT22;277;50.074;8.436;2022-12-18T14:56:02;-3.30;99.90
582;DHT22;277;50.074;8.436;2022-12-18T14:58:30;-3.30;99.90
582;DHT22;277;50.074;8.436;2022-12-18T15:00:59;-3.30;99.90
582;DHT22;277;50.074;8.436;2022-12-18T15:03:27;-3.30;99.90
582;DHT22;277;50.074;8.436;2022-12-18T15:05:55;-3.30;99.90
582;DHT22;277;50.074;8.436;2022-12-18T15:08:28;-3.30;99.90
582;DHT22;277;50.074;8.436;2022-12-18T15:10:56;-3.40;99.90
582;DHT22;277;50.074;8.436;2022-12-18T15:13:24;-3.40;99.90
582;DHT22;277;50.074;8.436;2022-12-18T15:15:53;-3.40;99.90
582;DHT22;277;50.074;8.436;2022-12-18T15:18:27;-3.50;99.90
582;DHT22;277;50.074;8.436;2022-12-18T15:20:57;-3.50;99.90
582;DHT22;277;50.074;8.436;2022-12-18T15:23:27;-3.50;99.90
582;DHT22;277;50.074;8.436;2022-12-18T15:25:55;-3.50;99.90
582;DHT22;277;50.074;8.436;2022-12-18T15:28:24;-3.60;99.90
582;DHT22;277;50.074;8.436;2022-12-18T15:31:03;-3.60;99.90
582;DHT22;277;50.074;8.436;2022-12-18T15:33:33;-3.60;99.90
582;DHT22;277;50.074;8.436;2022-12-18T15:36:02;-3.60;99.90
582;DHT22;277;50.074;8.436;2022-12-18T15:38:30;-3.60;99.90
582;DHT22;277;50.074;8.436;2022-12-18T15:40:58;-3.70;99.90
582;DHT22;277;50.074;8.436;2022-12-18T15:43:28;-3.60;99.90
582;DHT22;277;50.074;8.436;2022-12-18T15:46:01;-3.60;99.90
582;DHT22;277;50.074;8.436;2022-12-18T15:48:29;-3.60;99.90
582;DHT22;277;50.074;8.436;2022-12-18T15:50:58;-3.60;99.90
582;DHT22;277;50.074;8.436;2022-12-18T15:53:27;-3.60;99.90
582;DHT22;277;50.074;8.436;2022-12-18T15:55:57;-3.60;99.90
582;DHT22;277;50.074;8.436;2022-12-18T15:58:42;-3.50;99.90
582;DHT22;277;50.074;8.436;2022-12-18T16:01:10;3.80;99.90
582;DHT22;277;50.074;8.436;2022-12-18T16:03:38;4.80;99.90
582;DHT22;277;50.074;8.436;2022-12-18T16:06:09;4.30;99.90
582;DHT22;277;50.074;8.436;2022-12-18T16:08:36;3.80;99.90
582;DHT22;277;50.074;8.436;2022-12-18T16:11:08;3.80;99.90
582;DHT22;277;50.074;8.436;2022-12-18T16:13:36;3.70;99.90
582;DHT22;277;50.074;8.436;2022-12-18T16:16:05;3.60;99.90
582;DHT22;277;50.074;8.436;2022-12-18T16:18:33;3.90;99.90
582;DHT22;277;50.074;8.436;2022-12-18T16:21:00;3.90;99.90
582;DHT22;277;50.074;8.436;2022-12-18T16:23:29;4.50;99.90
582;DHT22;277;50.074;8.436;2022-12-18T16:25:57;4.50;99.90
582;DHT22;277;50.074;8.436;2022-12-18T16:28:25;4.30;99.90
582;DHT22;277;50.074;8.436;2022-12-18T16:30:52;3.40;99.90
582;DHT22;277;50.074;8.436;2022-12-18T16:33:20;2.10;99.90
582;DHT22;277;50.074;8.436;2022-12-18T16:35:51;1.00;99.90
582;DHT22;277;50.074;8.436;2022-12-18T16:38:18;0.30;99.90
582;DHT22;277;50.074;8.436;2022-12-18T16:40:47;-0.30;99.90
582;DHT22;277;50.074;8.436;2022-12-18T16:43:29;-0.90;99.90
582;DHT22;277;50.074;8.436;2022-12-18T16:45:58;-1.30;99.90
582;DHT22;277;50.074;8.436;2022-12-18T16:48:26;-1.50;99.90
582;DHT22;277;50.074;8.436;2022-12-18T16:50:58;-1.80;99.90
582;DHT22;277;50.074;8.436;2022-12-18T16:53:27;-2.00;99.90
582;DHT22;277;50.074;8.436;2022-12-18T16:55:57;-2.30;99.90
582;DHT22;277;50.074;8.436;2022-12-18T16:58:25;-2.40;99.90
582;DHT22;277;50.074;8.436;2022-12-18T17:00:52;-2.50;99.90
582;DHT22;277;50.074;8.436;2022-12-18T17:03:20;-2.50;99.90
582;DHT22;277;50.074;8.436;2022-12-18T17:05:48;-2.60;99.90